sim
Sign-in with your pilot id or email,
or register
Callsign
Passwort

Schedule Details

Flight Number: OEO8795
Departure: Stuttgart Airport (EDDS) at 15:05
Arrival: Munich Airport (EDDM) at 16:15

Weather Information
Getting current METAR information for EDDS 260720Z 23009KT 160V290 9999 -RA FEW017 SCT029 BKN045 07/05 Q1000 RERA TEMPO 23015G25KT RA
Getting current METAR information for EDDM 260720Z 27012KT 9999 FEW012 BKN017 08/05 Q0999 NOSIG

Schedule Frequency

Route Map